sensor_id;sensor_type;location;lat;lon;timestamp;pressure;altitude;pressure_sealevel;temperature;humidity
55656;BME280;41530;52.382;5.270;2024-02-14T00:00:14;101406.75;;;15.59;53.87
55656;BME280;41530;52.382;5.270;2024-02-14T00:02:44;101411.09;;;15.60;54.06
55656;BME280;41530;52.382;5.270;2024-02-14T00:05:11;101386.53;;;15.47;53.81
55656;BME280;41530;52.382;5.270;2024-02-14T00:07:38;101394.09;;;15.52;53.88
55656;BME280;41530;52.382;5.270;2024-02-14T00:10:06;101403.13;;;15.60;53.75
55656;BME280;41530;52.382;5.270;2024-02-14T00:12:34;101405.22;;;15.57;53.83
55656;BME280;41530;52.382;5.270;2024-02-14T00:15:03;101378.56;;;15.47;53.94
55656;BME280;41530;52.382;5.270;2024-02-14T00:17:30;101400.75;;;15.57;53.64
55656;BME280;41530;52.382;5.270;2024-02-14T00:19:57;101395.66;;;15.54;53.95
55656;BME280;41530;52.382;5.270;2024-02-14T00:22:24;101382.19;;;15.46;53.89
55656;BME280;41530;52.382;5.270;2024-02-14T00:24:50;101386.66;;;15.57;53.89
55656;BME280;41530;52.382;5.270;2024-02-14T00:27:17;101377.59;;;15.48;53.75
55656;BME280;41530;52.382;5.270;2024-02-14T00:29:44;101385.44;;;15.50;53.83
55656;BME280;41530;52.382;5.270;2024-02-14T00:32:13;101387.00;;;15.52;53.76
55656;BME280;41530;52.382;5.270;2024-02-14T00:34:40;101381.81;;;15.51;53.89
55656;BME280;41530;52.382;5.270;2024-02-14T00:37:07;101371.31;;;15.49;53.72
55656;BME280;41530;52.382;5.270;2024-02-14T00:39:34;101373.00;;;15.50;53.88
55656;BME280;41530;52.382;5.270;2024-02-14T00:42:01;101347.03;;;15.44;53.46
55656;BME280;41530;52.382;5.270;2024-02-14T00:44:27;101358.53;;;15.54;53.72
55656;BME280;41530;52.382;5.270;2024-02-14T00:46:57;101361.09;;;15.56;53.77
55656;BME280;41530;52.382;5.270;2024-02-14T00:49:28;101359.50;;;15.53;53.87
55656;BME280;41530;52.382;5.270;2024-02-14T00:51:55;101361.09;;;15.56;53.72
55656;BME280;41530;52.382;5.270;2024-02-14T00:54:22;101351.56;;;15.53;54.15
55656;BME280;41530;52.382;5.270;2024-02-14T00:56:49;101351.09;;;15.48;54.08
55656;BME280;41530;52.382;5.270;2024-02-14T00:59:15;101351.19;;;15.47;53.80
55656;BME280;41530;52.382;5.270;2024-02-14T01:01:43;101353.59;;;15.50;53.67
55656;BME280;41530;52.382;5.270;2024-02-14T01:04:11;101327.88;;;15.41;53.96
55656;BME280;41530;52.382;5.270;2024-02-14T01:06:38;101353.84;;;15.47;54.13
55656;BME280;41530;52.382;5.270;2024-02-14T01:09:05;101351.19;;;15.47;54.17
55656;BME280;41530;52.382;5.270;2024-02-14T01:11:31;101346.88;;;15.46;54.07
55656;BME280;41530;52.382;5.270;2024-02-14T01:13:58;101347.16;;;15.43;54.15
55656;BME280;41530;52.382;5.270;2024-02-14T01:16:25;101357.75;;;15.43;54.12
55656;BME280;41530;52.382;5.270;2024-02-14T01:18:55;101344.63;;;15.41;53.86
55656;BME280;41530;52.382;5.270;2024-02-14T01:21:21;101339.44;;;15.40;54.17
55656;BME280;41530;52.382;5.270;2024-02-14T01:23:48;101338.34;;;15.42;54.13
55656;BME280;41530;52.382;5.270;2024-02-14T01:26:15;101340.53;;;15.37;54.15
55656;BME280;41530;52.382;5.270;2024-02-14T01:28:41;101330.28;;;15.32;54.26
55656;BME280;41530;52.382;5.270;2024-02-14T01:31:11;101342.94;;;15.40;54.15
55656;BME280;41530;52.382;5.270;2024-02-14T01:33:38;101350.63;;;15.43;54.35
55656;BME280;41530;52.382;5.270;2024-02-14T01:36:06;101348.09;;;15.42;54.44
55656;BME280;41530;52.382;5.270;2024-02-14T01:38:33;101349.06;;;15.41;54.40
55656;BME280;41530;52.382;5.270;2024-02-14T01:41:03;101341.50;;;15.36;54.48
55656;BME280;41530;52.382;5.270;2024-02-14T01:43:32;101352.09;;;15.36;54.72
55656;BME280;41530;52.382;5.270;2024-02-14T01:46:10;101328.03;;;15.28;54.60
55656;BME280;41530;52.382;5.270;2024-02-14T01:48:38;101364.13;;;15.40;54.71
55656;BME280;41530;52.382;5.270;2024-02-14T01:51:07;101357.50;;;15.34;54.73
55656;BME280;41530;52.382;5.270;2024-02-14T01:53:36;101353.56;;;15.29;54.61
55656;BME280;41530;52.382;5.270;2024-02-14T01:56:04;101361.72;;;15.37;54.91
55656;BME280;41530;52.382;5.270;2024-02-14T01:58:33;101348.16;;;15.30;54.76
55656;BME280;41530;52.382;5.270;2024-02-14T02:01:00;101349.69;;;15.33;54.87
55656;BME280;41530;52.382;5.270;2024-02-14T02:03:27;101340.81;;;15.23;55.00
55656;BME280;41530;52.382;5.270;2024-02-14T02:05:55;101354.41;;;15.29;55.03
55656;BME280;41530;52.382;5.270;2024-02-14T02:08:22;101340.19;;;15.19;54.99
55656;BME280;41530;52.382;5.270;2024-02-14T02:10:49;101369.94;;;15.34;55.01
55656;BME280;41530;52.382;5.270;2024-02-14T02:13:16;101361.41;;;15.30;55.22
55656;BME280;41530;52.382;5.270;2024-02-14T02:15:43;101371.16;;;15.30;55.11
55656;BME280;41530;52.382;5.270;2024-02-14T02:18:11;101361.88;;;15.24;55.12
55656;BME280;41530;52.382;5.270;2024-02-14T02:20:38;101374.91;;;15.27;55.28
55656;BME280;41530;52.382;5.270;2024-02-14T02:23:05;101366.34;;;15.24;55.07
55656;BME280;41530;52.382;5.270;2024-02-14T02:25:32;101366.84;;;15.18;55.44
55656;BME280;41530;52.382;5.270;2024-02-14T02:27:58;101353.13;;;15.13;55.48
55656;BME280;41530;52.382;5.270;2024-02-14T02:30:26;101366.34;;;15.24;55.38
55656;BME280;41530;52.382;5.270;2024-02-14T02:32:53;101365.50;;;15.23;55.39
55656;BME280;41530;52.382;5.270;2024-02-14T02:35:20;101375.00;;;15.26;55.61
55656;BME280;41530;52.382;5.270;2024-02-14T02:37:47;101370.81;;;15.23;55.58
55656;BME280;41530;52.382;5.270;2024-02-14T02:40:17;101363.22;;;15.19;55.67
55656;BME280;41530;52.382;5.270;2024-02-14T02:42:44;101372.72;;;15.21;55.53
55656;BME280;41530;52.382;5.270;2024-02-14T02:45:11;101370.81;;;15.23;55.76
55656;BME280;41530;52.382;5.270;2024-02-14T02:47:38;101375.50;;;15.20;55.64
55656;BME280;41530;52.382;5.270;2024-02-14T02:50:06;101376.94;;;15.24;55.88
55656;BME280;41530;52.382;5.270;2024-02-14T02:52:34;101382.13;;;15.25;55.27
55656;BME280;41530;52.382;5.270;2024-02-14T02:55:01;101364.44;;;15.15;55.76
55656;BME280;41530;52.382;5.270;2024-02-14T02:57:28;101378.03;;;15.21;55.96
55656;BME280;41530;52.382;5.270;2024-02-14T02:59:56;101375.78;;;15.17;55.92
55656;BME280;41530;52.382;5.270;2024-02-14T03:02:22;101387.66;;;15.22;55.87
55656;BME280;41530;52.382;5.270;2024-02-14T03:04:49;101384.41;;;15.19;55.95
55656;BME280;41530;52.382;5.270;2024-02-14T03:07:24;101386.81;;;15.22;56.03
55656;BME280;41530;52.382;5.270;2024-02-14T03:09:51;101390.31;;;15.22;55.98
55656;BME280;41530;52.382;5.270;2024-02-14T03:12:18;101393.81;;;15.23;56.04
55656;BME280;41530;52.382;5.270;2024-02-14T03:14:45;101375.16;;;15.13;56.13
55656;BME280;41530;52.382;5.270;2024-02-14T03:17:13;101398.28;;;15.22;55.94
55656;BME280;41530;52.382;5.270;2024-02-14T03:19:40;101387.34;;;15.16;56.12
55656;BME280;41530;52.382;5.270;2024-02-14T03:22:07;101386.94;;;15.20;56.21
55656;BME280;41530;52.382;5.270;2024-02-14T03:24:35;101374.94;;;15.16;56.13
55656;BME280;41530;52.382;5.270;2024-02-14T03:27:03;101397.44;;;15.22;56.03
55656;BME280;41530;52.382;5.270;2024-02-14T03:29:33;101395.00;;;15.19;56.14
55656;BME280;41530;52.382;5.270;2024-02-14T03:32:02;101395.16;;;15.17;56.42
55656;BME280;41530;52.382;5.270;2024-02-14T03:34:33;101382.03;;;15.16;56.36
55656;BME280;41530;52.382;5.270;2024-02-14T03:37:02;101386.59;;;15.14;56.39
55656;BME280;41530;52.382;5.270;2024-02-14T03:39:30;101383.47;;;15.09;56.42
55656;BME280;41530;52.382;5.270;2024-02-14T03:41:57;101391.91;;;15.14;56.41
55656;BME280;41530;52.382;5.270;2024-02-14T03:44:27;101402.00;;;15.20;56.39
55656;BME280;41530;52.382;5.270;2024-02-14T03:46:54;101395.41;;;15.14;56.56
55656;BME280;41530;52.382;5.270;2024-02-14T03:49:21;101399.13;;;15.12;56.47
55656;BME280;41530;52.382;5.270;2024-02-14T03:51:48;101394.06;;;15.09;56.52
55656;BME280;41530;52.382;5.270;2024-02-14T03:54:19;101383.72;;;15.06;56.58
55656;BME280;41530;52.382;5.270;2024-02-14T03:56:47;101388.44;;;15.02;56.92
55656;BME280;41530;52.382;5.270;2024-02-14T03:59:14;101406.72;;;15.16;56.64
55656;BME280;41530;52.382;5.270;2024-02-14T04:01:45;101413.72;;;15.17;56.92
55656;BME280;41530;52.382;5.270;2024-02-14T04:04:12;101410.47;;;15.14;56.56
55656;BME280;41530;52.382;5.270;2024-02-14T04:06:39;101409.50;;;15.15;56.80
55656;BME280;41530;52.382;5.270;2024-02-14T04:09:06;101411.44;;;15.13;56.68
55656;BME280;41530;52.382;5.270;2024-02-14T04:11:33;101411.31;;;15.14;56.70
55656;BME280;41530;52.382;5.270;2024-02-14T04:14:00;101416.59;;;15.14;56.86
55656;BME280;41530;52.382;5.270;2024-02-14T04:16:26;101428.50;;;15.20;56.91
55656;BME280;41530;52.382;5.270;2024-02-14T04:18:53;101418.28;;;15.15;56.79
55656;BME280;41530;52.382;5.270;2024-02-14T04:21:21;101403.59;;;15.11;57.08
55656;BME280;41530;52.382;5.270;2024-02-14T04:23:51;101409.97;;;15.09;57.23
55656;BME280;41530;52.382;5.270;2024-02-14T04:26:21;101444.53;;;15.18;57.35
55656;BME280;41530;52.382;5.270;2024-02-14T04:28:48;101430.69;;;15.15;57.12
55656;BME280;41530;52.382;5.270;2024-02-14T04:31:14;101425.25;;;15.05;57.22
55656;BME280;41530;52.382;5.270;2024-02-14T04:33:42;101405.88;;;14.93;57.24
55656;BME280;41530;52.382;5.270;2024-02-14T04:36:09;101446.00;;;15.11;57.43
55656;BME280;41530;52.382;5.270;2024-02-14T04:38:38;101446.00;;;15.11;57.42
55656;BME280;41530;52.382;5.270;2024-02-14T04:41:05;101441.66;;;15.10;57.27
55656;BME280;41530;52.382;5.270;2024-02-14T04:43:31;101456.97;;;15.18;57.18
55656;BME280;41530;52.382;5.270;2024-02-14T04:45:58;101440.69;;;15.11;57.34
55656;BME280;41530;52.382;5.270;2024-02-14T04:48:27;101457.09;;;15.16;57.51
55656;BME280;41530;52.382;5.270;2024-02-14T04:50:56;101471.03;;;15.18;57.72
55656;BME280;41530;52.382;5.270;2024-02-14T04:53:23;101461.53;;;15.16;57.42
55656;BME280;41530;52.382;5.270;2024-02-14T04:55:50;101471.03;;;15.18;57.42
55656;BME280;41530;52.382;5.270;2024-02-14T04:58:16;101450.56;;;15.09;57.58
55656;BME280;41530;52.382;5.270;2024-02-14T05:00:43;101453.09;;;15.11;57.57
55656;BME280;41530;52.382;5.270;2024-02-14T05:03:10;101450.69;;;15.08;57.60
55656;BME280;41530;52.382;5.270;2024-02-14T05:05:37;101459.25;;;15.11;57.70
55656;BME280;41530;52.382;5.270;2024-02-14T05:08:04;101459.47;;;15.08;57.83
55656;BME280;41530;52.382;5.270;2024-02-14T05:10:31;101477.44;;;15.16;57.69
55656;BME280;41530;52.382;5.270;2024-02-14T05:12:58;101473.94;;;15.15;57.99
55656;BME280;41530;52.382;5.270;2024-02-14T05:15:24;101473.56;;;15.09;57.70
55656;BME280;41530;52.382;5.270;2024-02-14T05:17:51;101484.66;;;15.14;57.60
55656;BME280;41530;52.382;5.270;2024-02-14T05:20:18;101492.38;;;15.17;57.89
55656;BME280;41530;52.382;5.270;2024-02-14T05:22:45;101500.19;;;15.18;57.88
55656;BME280;41530;52.382;5.270;2024-02-14T05:25:11;101483.81;;;15.13;57.88
55656;BME280;41530;52.382;5.270;2024-02-14T05:27:38;101496.72;;;15.18;57.89
55656;BME280;41530;52.382;5.270;2024-02-14T05:30:05;101495.72;;;15.19;58.13
55656;BME280;41530;52.382;5.270;2024-02-14T05:32:33;101491.41;;;15.18;58.01
55656;BME280;41530;52.382;5.270;2024-02-14T05:35:00;101488.88;;;15.16;57.81
55656;BME280;41530;52.382;5.270;2024-02-14T05:37:29;101488.88;;;15.16;57.92
55656;BME280;41530;52.382;5.270;2024-02-14T05:39:55;101493.22;;;15.17;58.12
55656;BME280;41530;52.382;5.270;2024-02-14T05:42:22;101496.00;;;15.16;58.28
55656;BME280;41530;52.382;5.270;2024-02-14T05:44:50;101497.41;;;15.20;57.97
55656;BME280;41530;52.382;5.270;2024-02-14T05:47:18;101494.53;;;15.12;58.15
55656;BME280;41530;52.382;5.270;2024-02-14T05:49:45;101493.09;;;15.08;58.21
55656;BME280;41530;52.382;5.270;2024-02-14T05:52:12;101494.66;;;15.10;57.68
55656;BME280;41530;52.382;5.270;2024-02-14T05:54:41;101479.59;;;15.00;57.98
55656;BME280;41530;52.382;5.270;2024-02-14T05:57:08;101508.75;;;15.22;58.48
55656;BME280;41530;52.382;5.270;2024-02-14T05:59:35;101510.31;;;15.24;58.37
55656;BME280;41530;52.382;5.270;2024-02-14T06:02:02;101493.47;;;15.14;58.06
55656;BME280;41530;52.382;5.270;2024-02-14T06:04:29;101495.03;;;15.17;58.04
55656;BME280;41530;52.382;5.270;2024-02-14T06:06:56;101508.63;;;15.23;58.08
55656;BME280;41530;52.382;5.270;2024-02-14T06:09:23;101501.75;;;15.21;57.82
55656;BME280;41530;52.382;5.270;2024-02-14T06:11:49;101518.75;;;15.29;57.79
55656;BME280;41530;52.382;5.270;2024-02-14T06:14:18;101528.13;;;15.33;58.31
55656;BME280;41530;52.382;5.270;2024-02-14T06:16:45;101521.03;;;15.34;58.20
55656;BME280;41530;52.382;5.270;2024-02-14T06:19:11;101521.88;;;15.34;57.79
55656;BME280;41530;52.382;5.270;2024-02-14T06:21:39;101533.09;;;15.38;57.72
55656;BME280;41530;52.382;5.270;2024-02-14T06:24:05;101518.03;;;15.27;57.53
55656;BME280;41530;52.382;5.270;2024-02-14T06:26:32;101531.63;;;15.34;57.75
55656;BME280;41530;52.382;5.270;2024-02-14T06:29:00;101535.75;;;15.38;57.64
55656;BME280;41530;52.382;5.270;2024-02-14T06:31:26;101528.25;;;15.32;57.39
55656;BME280;41530;52.382;5.270;2024-02-14T06:33:53;101541.03;;;15.38;57.33
55656;BME280;41530;52.382;5.270;2024-02-14T06:36:22;101542.72;;;15.39;57.42
55656;BME280;41530;52.382;5.270;2024-02-14T06:38:51;101526.84;;;15.28;57.30
55656;BME280;41530;52.382;5.270;2024-02-14T06:41:19;101549.13;;;15.37;57.02
55656;BME280;41530;52.382;5.270;2024-02-14T06:43:46;101550.44;;;15.42;57.15
55656;BME280;41530;52.382;5.270;2024-02-14T06:46:13;101543.19;;;15.33;57.39
55656;BME280;41530;52.382;5.270;2024-02-14T06:48:40;101539.97;;;15.29;57.13
55656;BME280;41530;52.382;5.270;2024-02-14T06:51:07;101555.88;;;15.41;57.13
55656;BME280;41530;52.382;5.270;2024-02-14T06:53:34;101563.72;;;15.42;57.17
55656;BME280;41530;52.382;5.270;2024-02-14T06:56:02;101565.13;;;15.46;57.18
55656;BME280;41530;52.382;5.270;2024-02-14T06:58:29;101565.25;;;15.45;56.98
55656;BME280;41530;52.382;5.270;2024-02-14T07:00:56;101563.44;;;15.45;56.97
55656;BME280;41530;52.382;5.270;2024-02-14T07:03:23;101565.13;;;15.46;57.25
55656;BME280;41530;52.382;5.270;2024-02-14T07:05:50;101566.25;;;15.44;56.91
55656;BME280;41530;52.382;5.270;2024-02-14T07:08:18;101560.34;;;15.40;57.14
55656;BME280;41530;52.382;5.270;2024-02-14T07:10:45;101574.78;;;15.47;56.84
55656;BME280;41530;52.382;5.270;2024-02-14T07:13:12;101573.47;;;15.42;57.40
55656;BME280;41530;52.382;5.270;2024-02-14T07:15:38;101573.09;;;15.46;57.36
55656;BME280;41530;52.382;5.270;2024-02-14T07:18:05;101579.00;;;15.50;56.90
55656;BME280;41530;52.382;5.270;2024-02-14T07:20:34;101572.41;;;15.44;57.04
55656;BME280;41530;52.382;5.270;2024-02-14T07:23:01;101581.53;;;15.51;56.95
55656;BME280;41530;52.382;5.270;2024-02-14T07:25:28;101581.78;;;15.48;57.13
55656;BME280;41530;52.382;5.270;2024-02-14T07:27:55;101586.59;;;15.54;57.06
55656;BME280;41530;52.382;5.270;2024-02-14T07:37:29;101583.88;;;15.56;59.23
55656;BME280;41530;52.382;5.270;2024-02-14T07:39:56;101599.50;;;15.59;59.14
55656;BME280;41530;52.382;5.270;2024-02-14T07:42:22;101545.63;;;15.25;59.07
55656;BME280;41530;52.382;5.270;2024-02-14T07:44:49;101591.81;;;15.56;59.03
55656;BME280;41530;52.382;5.270;2024-02-14T07:47:16;101597.47;;;15.62;58.70
55656;BME280;41530;52.382;5.270;2024-02-14T07:49:42;101602.78;;;15.62;58.75
55656;BME280;41530;52.382;5.270;2024-02-14T07:52:12;101598.44;;;15.61;58.51
55656;BME280;41530;52.382;5.270;2024-02-14T07:54:38;101579.63;;;15.53;58.57
55656;BME280;41530;52.382;5.270;2024-02-14T07:57:06;101599.91;;;15.65;58.63
55656;BME280;41530;52.382;5.270;2024-02-14T07:59:33;101600.84;;;15.64;58.48
55656;BME280;41530;52.382;5.270;2024-02-14T08:01:59;101596.50;;;15.63;58.42
55656;BME280;41530;52.382;5.270;2024-02-14T08:04:26;101600.25;;;15.61;58.28
55656;BME280;41530;52.382;5.270;2024-02-14T08:06:53;101610.50;;;15.65;58.88
55656;BME280;41530;52.382;5.270;2024-02-14T08:09:20;101616.41;;;15.69;59.01
55656;BME280;41530;52.382;5.270;2024-02-14T08:11:47;101610.28;;;15.68;58.78
55656;BME280;41530;52.382;5.270;2024-02-14T08:14:13;101617.16;;;15.71;59.23
55656;BME280;41530;52.382;5.270;2024-02-14T08:16:40;101619.53;;;15.74;59.19
55656;BME280;41530;52.382;5.270;2024-02-14T08:19:07;101621.34;;;15.74;59.30
55656;BME280;41530;52.382;5.270;2024-02-14T08:21:34;101618.56;;;15.75;59.01
55656;BME280;41530;52.382;5.270;2024-02-14T08:24:01;101614.50;;;15.71;59.43
55656;BME280;41530;52.382;5.270;2024-02-14T08:26:28;101634.25;;;15.78;59.25
55656;BME280;41530;52.382;5.270;2024-02-14T08:28:55;101634.03;;;15.81;59.21
55656;BME280;41530;52.382;5.270;2024-02-14T08:31:22;101612.81;;;15.70;58.97
55656;BME280;41530;52.382;5.270;2024-02-14T08:33:49;101605.94;;;15.67;58.90
55656;BME280;41530;52.382;5.270;2024-02-14T08:36:16;101627.13;;;15.79;59.02
55656;BME280;41530;52.382;5.270;2024-02-14T08:38:46;101613.38;;;15.74;58.83
55656;BME280;41530;52.382;5.270;2024-02-14T08:41:13;101622.06;;;15.76;58.52
55656;BME280;41530;52.382;5.270;2024-02-14T08:43:44;101609.53;;;15.66;58.68
55656;BME280;41530;52.382;5.270;2024-02-14T08:46:13;101621.34;;;15.74;58.79
55656;BME280;41530;52.382;5.270;2024-02-14T08:48:41;101636.06;;;15.78;58.56
55656;BME280;41530;52.382;5.270;2024-02-14T08:51:14;101627.50;;;15.74;58.55
55656;BME280;41530;52.382;5.270;2024-02-14T08:53:41;101623.53;;;15.68;58.53
55656;BME280;41530;52.382;5.270;2024-02-14T08:56:10;101627.88;;;15.70;58.50
55656;BME280;41530;52.382;5.270;2024-02-14T08:58:37;101627.38;;;15.76;58.28
55656;BME280;41530;52.382;5.270;2024-02-14T09:01:04;101640.53;;;15.77;58.51
55656;BME280;41530;52.382;5.270;2024-02-14T09:03:40;101633.66;;;15.75;58.64
55656;BME280;41530;52.382;5.270;2024-02-14T09:06:10;101629.81;;;15.67;58.33
55656;BME280;41530;52.382;5.270;2024-02-14T09:08:36;101629.41;;;15.72;58.44
55656;BME280;41530;52.382;5.270;2024-02-14T09:11:04;101641.84;;;15.72;58.42
55656;BME280;41530;52.382;5.270;2024-02-14T09:13:30;101642.44;;;15.75;58.30
55656;BME280;41530;52.382;5.270;2024-02-14T09:15:57;101640.88;;;15.73;58.41
55656;BME280;41530;52.382;5.270;2024-02-14T09:18:24;101643.53;;;15.73;58.35
55656;BME280;41530;52.382;5.270;2024-02-14T09:20:52;101652.22;;;15.75;58.26
55656;BME280;41530;52.382;5.270;2024-02-14T09:23:19;101652.22;;;15.75;58.19
55656;BME280;41530;52.382;5.270;2024-02-14T09:25:47;101664.50;;;15.76;57.98
55656;BME280;41530;52.382;5.270;2024-02-14T09:28:15;101654.13;;;15.73;58.12
55656;BME280;41530;52.382;5.270;2024-02-14T09:30:42;101642.09;;;15.68;58.04
55656;BME280;41530;52.382;5.270;2024-02-14T09:33:09;101664.28;;;15.79;57.92
55656;BME280;41530;52.382;5.270;2024-02-14T09:35:36;101640.41;;;15.67;58.01
55656;BME280;41530;52.382;5.270;2024-02-14T09:38:05;101660.91;;;15.77;58.03
55656;BME280;41530;52.382;5.270;2024-02-14T09:40:31;101645.94;;;15.76;57.87
55656;BME280;41530;52.382;5.270;2024-02-14T09:43:05;101642.81;;;15.82;57.66
55656;BME280;41530;52.382;5.270;2024-02-14T09:45:37;101653.44;;;15.82;57.73
55656;BME280;41530;52.382;5.270;2024-02-14T09:48:04;101626.66;;;15.74;57.95
55656;BME280;41530;52.382;5.270;2024-02-14T09:50:34;101628.34;;;15.75;57.70
55656;BME280;41530;52.382;5.270;2024-02-14T09:53:02;101630.88;;;15.76;57.65
55656;BME280;41530;52.382;5.270;2024-02-14T09:55:29;101645.47;;;15.82;57.48
55656;BME280;41530;52.382;5.270;2024-02-14T09:57:56;101651.00;;;15.90;57.29
55656;BME280;41530;52.382;5.270;2024-02-14T10:00:24;101664.28;;;15.90;57.34
55656;BME280;41530;52.382;5.270;2024-02-14T10:02:51;101646.31;;;15.82;57.50
55656;BME280;41530;52.382;5.270;2024-02-14T10:05:18;101637.50;;;15.82;57.45
55656;BME280;41530;52.382;5.270;2024-02-14T10:07:44;101665.72;;;15.94;57.27
55656;BME280;41530;52.382;5.270;2024-02-14T10:10:13;101651.25;;;15.87;57.41
55656;BME280;41530;52.382;5.270;2024-02-14T10:12:41;101660.03;;;15.87;57.43
55656;BME280;41530;52.382;5.270;2024-02-14T10:15:08;101653.31;;;15.83;57.49
55656;BME280;41530;52.382;5.270;2024-02-14T10:17:35;101661.50;;;15.91;57.29
55656;BME280;41530;52.382;5.270;2024-02-14T10:20:03;101654.16;;;15.84;57.25
55656;BME280;41530;52.382;5.270;2024-02-14T10:22:34;101662.69;;;15.87;57.41
55656;BME280;41530;52.382;5.270;2024-02-14T10:25:03;101668.63;;;15.91;57.34
55656;BME280;41530;52.382;5.270;2024-02-14T10:27:30;101673.56;;;15.95;57.21
55656;BME280;41530;52.382;5.270;2024-02-14T10:29:59;101661.13;;;15.85;57.06
55656;BME280;41530;52.382;5.270;2024-02-14T10:32:27;101680.41;;;15.98;57.20
55656;BME280;41530;52.382;5.270;2024-02-14T10:34:54;101661.75;;;15.88;57.29
55656;BME280;41530;52.382;5.270;2024-02-14T10:37:21;101672.63;;;15.96;57.19
55656;BME280;41530;52.382;5.270;2024-02-14T10:39:49;101666.09;;;15.89;57.20
55656;BME280;41530;52.382;5.270;2024-02-14T10:42:19;101681.53;;;15.95;57.35
55656;BME280;41530;52.382;5.270;2024-02-14T10:44:45;101670.53;;;15.89;57.41
55656;BME280;41530;52.382;5.270;2024-02-14T10:47:19;101689.97;;;16.00;57.26
55656;BME280;41530;52.382;5.270;2024-02-14T10:49:50;101674.16;;;15.88;57.41
55656;BME280;41530;52.382;5.270;2024-02-14T10:52:19;101677.44;;;15.91;57.04
55656;BME280;41530;52.382;5.270;2024-02-14T10:54:56;101695.25;;;16.00;57.46
55656;BME280;41530;52.382;5.270;2024-02-14T10:57:27;101675.38;;;15.95;57.23
55656;BME280;41530;52.382;5.270;2024-02-14T10:59:56;101670.31;;;15.92;57.12
55656;BME280;41530;52.382;5.270;2024-02-14T11:02:26;101676.81;;;15.99;56.96
55656;BME280;41530;52.382;5.270;2024-02-14T11:04:57;101680.19;;;16.01;57.10
55656;BME280;41530;52.382;5.270;2024-02-14T11:07:27;101684.41;;;16.03;57.15
55656;BME280;41530;52.382;5.270;2024-02-14T11:10:04;101689.59;;;16.05;57.35
55656;BME280;41530;52.382;5.270;2024-02-14T11:12:35;101687.78;;;16.06;57.04
55656;BME280;41530;52.382;5.270;2024-02-14T11:15:14;101669.00;;;15.97;57.06
55656;BME280;41530;52.382;5.270;2024-02-14T11:17:42;101683.34;;;16.06;57.07
55656;BME280;41530;52.382;5.270;2024-02-14T11:20:19;101682.38;;;16.07;57.06
55656;BME280;41530;52.382;5.270;2024-02-14T11:22:56;101677.19;;;16.06;57.10
55656;BME280;41530;52.382;5.270;2024-02-14T11:25:28;101676.34;;;16.05;57.15
55656;BME280;41530;52.382;5.270;2024-02-14T11:27:57;101687.56;;;16.09;57.00
55656;BME280;41530;52.382;5.270;2024-02-14T11:30:36;101683.94;;;16.10;57.05
55656;BME280;41530;52.382;5.270;2024-02-14T11:33:29;101671.63;;;16.09;57.06
55656;BME280;41530;52.382;5.270;2024-02-14T11:35:56;101668.84;;;16.10;57.21
55656;BME280;41530;52.382;5.270;2024-02-14T11:38:25;101647.38;;;15.91;57.08
55656;BME280;41530;52.382;5.270;2024-02-14T11:40:56;101676.81;;;16.10;56.80
55656;BME280;41530;52.382;5.270;2024-02-14T11:43:23;101664.38;;;15.99;56.79
55656;BME280;41530;52.382;5.270;2024-02-14T11:45:51;101664.75;;;16.06;56.93
55656;BME280;41530;52.382;5.270;2024-02-14T11:48:21;101667.41;;;16.06;56.95
55656;BME280;41530;52.382;5.270;2024-02-14T11:50:53;101680.16;;;16.12;56.81
55656;BME280;41530;52.382;5.270;2024-02-14T11:53:20;101630.84;;;15.87;56.94
55656;BME280;41530;52.382;5.270;2024-02-14T11:55:47;101664.53;;;16.09;57.00
55656;BME280;41530;52.382;5.270;2024-02-14T11:58:16;101669.44;;;16.14;56.96
55656;BME280;41530;52.382;5.270;2024-02-14T12:00:44;101671.25;;;16.13;57.26
55656;BME280;41530;52.382;5.270;2024-02-14T12:03:22;101664.53;;;16.09;57.71
55656;BME280;41530;52.382;5.270;2024-02-14T12:05:51;101651.47;;;16.06;57.58
55656;BME280;41530;52.382;5.270;2024-02-14T12:08:19;101666.44;;;16.18;57.35
55656;BME280;41530;52.382;5.270;2024-02-14T12:10:47;101668.13;;;16.19;57.42
55656;BME280;41530;52.382;5.270;2024-02-14T12:13:17;101660.03;;;16.21;57.63
55656;BME280;41530;52.382;5.270;2024-02-14T12:15:47;101660.03;;;16.21;57.52
55656;BME280;41530;52.382;5.270;2024-02-14T12:18:15;101647.25;;;16.15;57.24
55656;BME280;41530;52.382;5.270;2024-02-14T12:20:42;101649.41;;;16.21;57.42
55656;BME280;41530;52.382;5.270;2024-02-14T12:23:15;101654.59;;;16.22;57.59
55656;BME280;41530;52.382;5.270;2024-02-14T12:25:45;101651.81;;;16.24;57.55
55656;BME280;41530;52.382;5.270;2024-02-14T12:28:17;101630.47;;;16.14;57.42
55656;BME280;41530;52.382;5.270;2024-02-14T12:30:46;101644.72;;;16.24;57.60
55656;BME280;41530;52.382;5.270;2024-02-14T12:33:15;101632.63;;;16.20;57.36
55656;BME280;41530;52.382;5.270;2024-02-14T12:35:44;101634.91;;;16.25;57.60
55656;BME280;41530;52.382;5.270;2024-02-14T12:38:12;101645.28;;;16.28;57.44
55656;BME280;41530;52.382;5.270;2024-02-14T12:40:40;101648.66;;;16.30;57.42
55656;BME280;41530;52.382;5.270;2024-02-14T12:43:14;101637.44;;;16.26;57.56
55656;BME280;41530;52.382;5.270;2024-02-14T12:45:42;101641.53;;;16.30;57.80
55656;BME280;41530;52.382;5.270;2024-02-14T12:48:09;101651.06;;;16.33;57.34
55656;BME280;41530;52.382;5.270;2024-02-14T12:50:37;101627.78;;;16.25;57.25
55656;BME280;41530;52.382;5.270;2024-02-14T12:53:14;101651.19;;;16.31;57.58
55656;BME280;41530;52.382;5.270;2024-02-14T12:55:40;101640.09;;;16.26;57.54
55656;BME280;41530;52.382;5.270;2024-02-14T12:58:07;101634.78;;;16.26;57.51
55656;BME280;41530;52.382;5.270;2024-02-14T13:00:36;101636.09;;;16.32;57.59